createdAt,value
2023-06-13T00:00:57.854Z,961.29
2023-06-13T00:01:57.847Z,961.21
2023-06-13T00:02:57.890Z,961.23
2023-06-13T00:03:57.890Z,961.20
2023-06-13T00:04:57.809Z,961.19
2023-06-13T00:05:57.797Z,961.17
2023-06-13T00:06:57.854Z,961.14
2023-06-13T00:07:57.779Z,961.15
2023-06-13T00:08:57.766Z,961.17
2023-06-13T00:09:57.765Z,961.18
2023-06-13T00:10:57.743Z,961.16
2023-06-13T00:11:57.740Z,961.15
2023-06-13T00:12:57.726Z,961.16
2023-06-13T00:13:57.718Z,961.15
2023-06-13T00:14:57.696Z,961.14
2023-06-13T00:15:57.760Z,961.11
2023-06-13T00:16:57.673Z,961.11
2023-06-13T00:17:57.732Z,961.09
2023-06-13T00:18:57.714Z,961.07
2023-06-13T00:19:57.655Z,961.11
2023-06-13T00:20:57.633Z,961.10
2023-06-13T00:21:57.623Z,961.07
2023-06-13T00:22:57.617Z,961.10
2023-06-13T00:23:57.615Z,961.08
2023-06-13T00:24:57.585Z,961.10
2023-06-13T00:25:57.598Z,961.10
2023-06-13T00:26:57.561Z,961.07
2023-06-13T00:27:57.554Z,961.10
2023-06-13T00:28:57.538Z,961.11
2023-06-13T00:29:57.549Z,961.06
2023-06-13T00:30:57.550Z,961.09
2023-06-13T00:31:57.505Z,961.04
2023-06-13T00:32:57.537Z,961.09
2023-06-13T00:33:57.486Z,961.03
2023-06-13T00:34:57.470Z,961.06
2023-06-13T00:35:57.465Z,961.05
2023-06-13T00:36:57.483Z,961.01
2023-06-13T00:37:57.537Z,961.04
2023-06-13T00:38:57.428Z,961.03
2023-06-13T00:39:57.423Z,961.00
2023-06-13T00:41:00.057Z,961.00
2023-06-13T00:41:57.408Z,960.98
2023-06-13T00:42:57.410Z,960.99
2023-06-13T00:43:57.375Z,960.98
2023-06-13T00:44:57.366Z,960.94
2023-06-13T00:45:57.348Z,960.95
2023-06-13T00:46:57.418Z,960.95
2023-06-13T00:47:57.392Z,960.94
2023-06-13T00:48:57.334Z,960.96
2023-06-13T00:49:57.309Z,960.95
2023-06-13T00:50:57.289Z,960.93
2023-06-13T00:51:57.288Z,960.96
2023-06-13T00:52:57.285Z,960.98
2023-06-13T00:53:57.266Z,960.93
2023-06-13T00:54:57.246Z,960.98
2023-06-13T00:55:57.240Z,960.94
2023-06-13T00:56:57.229Z,960.95
2023-06-13T00:57:57.232Z,960.98
2023-06-13T00:58:57.204Z,960.94
2023-06-13T00:59:57.204Z,960.96
2023-06-13T01:00:57.182Z,960.94
2023-06-13T01:01:57.194Z,960.97
2023-06-13T01:02:57.181Z,960.98
2023-06-13T01:03:57.203Z,960.98
2023-06-13T01:04:57.167Z,960.99
2023-06-13T01:05:57.128Z,960.98
2023-06-13T01:06:57.106Z,960.95
2023-06-13T01:07:57.113Z,960.96
2023-06-13T01:08:57.094Z,960.96
2023-06-13T01:09:57.092Z,960.95
2023-06-13T01:10:57.068Z,960.93
2023-06-13T01:11:57.060Z,960.89
2023-06-13T01:12:57.054Z,960.88
2023-06-13T01:13:57.042Z,960.86
2023-06-13T01:14:57.071Z,960.84
2023-06-13T01:15:57.025Z,960.81
2023-06-13T01:16:57.104Z,960.83
2023-06-13T01:17:57.032Z,960.83
2023-06-13T01:18:56.976Z,960.86
2023-06-13T01:19:56.970Z,960.79
2023-06-13T01:20:56.972Z,960.81
2023-06-13T01:21:56.942Z,960.74
2023-06-13T01:22:56.925Z,960.76
2023-06-13T01:23:56.946Z,960.77
2023-06-13T01:24:56.930Z,960.78
2023-06-13T01:25:56.905Z,960.75
2023-06-13T01:26:56.887Z,960.75
2023-06-13T01:27:56.884Z,960.74
2023-06-13T01:28:56.867Z,960.81
2023-06-13T01:29:56.880Z,960.73
2023-06-13T01:30:56.863Z,960.75
2023-06-13T01:31:56.899Z,960.73
2023-06-13T01:32:56.837Z,960.79
2023-06-13T01:33:56.821Z,960.76
2023-06-13T01:34:56.803Z,960.78
2023-06-13T01:35:56.794Z,960.73
2023-06-13T01:36:56.773Z,960.74
2023-06-13T01:37:56.773Z,960.73
2023-06-13T01:38:56.751Z,960.74
2023-06-13T01:39:56.755Z,960.73
2023-06-13T01:40:56.749Z,960.74
2023-06-13T01:41:56.716Z,960.75
2023-06-13T01:42:56.723Z,960.74
2023-06-13T01:43:56.714Z,960.72
2023-06-13T01:44:56.687Z,960.78
2023-06-13T01:45:56.705Z,960.78
2023-06-13T01:46:56.670Z,960.82
2023-06-13T01:47:56.730Z,960.79
2023-06-13T01:48:56.643Z,960.84
2023-06-13T01:49:56.632Z,960.79
2023-06-13T01:50:56.623Z,960.82
2023-06-13T01:51:56.607Z,960.85
2023-06-13T01:52:56.597Z,960.83
2023-06-13T01:53:56.604Z,960.80
2023-06-13T01:54:56.573Z,960.81
2023-06-13T01:55:56.563Z,960.79
2023-06-13T01:56:56.546Z,960.75
2023-06-13T01:57:56.550Z,960.79
2023-06-13T01:58:56.528Z,960.81
2023-06-13T01:59:56.513Z,960.78
2023-06-13T02:00:56.544Z,960.79
2023-06-13T02:01:56.499Z,960.82
2023-06-13T02:02:56.554Z,960.76
2023-06-13T02:03:56.532Z,960.80
2023-06-13T02:04:56.481Z,960.82
2023-06-13T02:05:56.464Z,960.80
2023-06-13T02:06:56.500Z,960.81
2023-06-13T02:07:56.436Z,960.81
2023-06-13T02:08:56.416Z,960.77
2023-06-13T02:09:56.405Z,960.74
2023-06-13T02:10:56.399Z,960.73
2023-06-13T02:11:56.389Z,960.74
2023-06-13T02:12:56.388Z,960.75
2023-06-13T02:13:56.373Z,960.78
2023-06-13T02:14:56.355Z,960.74
2023-06-13T02:15:56.339Z,960.73
2023-06-13T02:16:56.477Z,960.72
2023-06-13T02:17:56.528Z,960.66
2023-06-13T02:18:56.328Z,960.67
2023-06-13T02:19:56.301Z,960.68
2023-06-13T02:20:56.301Z,960.66
2023-06-13T02:21:56.265Z,960.63
2023-06-13T02:22:56.252Z,960.62
2023-06-13T02:23:56.276Z,960.63
2023-06-13T02:24:56.237Z,960.63
2023-06-13T02:25:56.225Z,960.64
2023-06-13T02:26:56.210Z,960.63
2023-06-13T02:27:56.225Z,960.64
2023-06-13T02:28:56.199Z,960.64
2023-06-13T02:29:56.212Z,960.65
2023-06-13T02:30:56.220Z,960.65
2023-06-13T02:31:56.195Z,960.63
2023-06-13T02:32:56.226Z,960.64
2023-06-13T02:33:56.129Z,960.59
2023-06-13T02:34:56.112Z,960.61
2023-06-13T02:35:56.122Z,960.66
2023-06-13T02:36:56.099Z,960.61
2023-06-13T02:37:56.080Z,960.61
2023-06-13T02:38:56.071Z,960.59
2023-06-13T02:39:56.067Z,960.61
2023-06-13T02:40:56.046Z,960.60
2023-06-13T02:41:56.057Z,960.62
2023-06-13T02:42:56.039Z,960.65
2023-06-13T02:43:56.018Z,960.62
2023-06-13T02:44:56.006Z,960.66
2023-06-13T02:45:56.004Z,960.68
2023-06-13T02:46:55.993Z,960.67
2023-06-13T02:47:56.078Z,960.70
2023-06-13T02:48:56.058Z,960.75
2023-06-13T02:49:55.952Z,960.76
2023-06-13T02:50:55.956Z,960.74
2023-06-13T02:51:55.940Z,960.75
2023-06-13T02:52:55.915Z,960.80
2023-06-13T02:53:55.916Z,960.82
2023-06-13T02:54:55.892Z,960.78
2023-06-13T02:55:55.915Z,960.80
2023-06-13T02:56:55.875Z,960.77
2023-06-13T02:57:55.863Z,960.76
2023-06-13T02:58:55.866Z,960.80
2023-06-13T02:59:55.858Z,960.76
2023-06-13T03:00:55.842Z,960.82
2023-06-13T03:01:55.816Z,960.76
2023-06-13T03:02:55.872Z,960.78
2023-06-13T03:03:55.853Z,960.75
2023-06-13T03:04:55.778Z,960.74
2023-06-13T03:05:55.772Z,960.78
2023-06-13T03:06:55.757Z,960.76
2023-06-13T03:07:55.755Z,960.78
2023-06-13T03:08:55.743Z,960.76
2023-06-13T03:09:55.730Z,960.76
2023-06-13T03:10:55.719Z,960.78
2023-06-13T03:11:55.708Z,960.77
2023-06-13T03:12:55.702Z,960.77
2023-06-13T03:13:55.680Z,960.77
2023-06-13T03:14:55.676Z,960.79
2023-06-13T03:15:55.671Z,960.82
2023-06-13T03:16:55.657Z,960.84
2023-06-13T03:17:55.669Z,960.84
2023-06-13T03:18:55.642Z,960.86
2023-06-13T03:20:03.754Z,960.84
2023-06-13T03:20:55.607Z,960.82
2023-06-13T03:21:55.593Z,960.82
2023-06-13T03:22:55.576Z,960.85
2023-06-13T03:23:55.594Z,960.83
2023-06-13T03:24:55.556Z,960.83
2023-06-13T03:25:55.541Z,960.83
2023-06-13T03:26:55.539Z,960.87
2023-06-13T03:27:55.529Z,960.83
2023-06-13T03:28:55.511Z,960.89
2023-06-13T03:29:55.498Z,960.85
2023-06-13T03:30:55.547Z,960.92
2023-06-13T03:31:55.498Z,960.93
2023-06-13T03:32:55.568Z,960.91
2023-06-13T03:33:55.460Z,960.97
2023-06-13T03:34:55.440Z,960.92
2023-06-13T03:35:58.787Z,960.98
2023-06-13T03:36:55.433Z,960.94
2023-06-13T03:37:55.401Z,960.94
2023-06-13T03:38:55.403Z,960.94
2023-06-13T03:39:55.389Z,960.97
2023-06-13T03:40:55.401Z,960.93
2023-06-13T03:41:55.367Z,960.97
2023-06-13T03:42:55.357Z,960.94
2023-06-13T03:43:55.339Z,960.94
2023-06-13T03:44:55.339Z,960.93
2023-06-13T03:45:55.329Z,960.89
2023-06-13T03:46:55.314Z,960.91
2023-06-13T03:47:55.355Z,960.90
2023-06-13T03:48:55.406Z,960.87
2023-06-13T03:49:55.270Z,960.92
2023-06-13T03:50:55.262Z,960.89
2023-06-13T03:51:55.244Z,960.88
2023-06-13T03:52:55.248Z,960.92
2023-06-13T03:53:55.223Z,960.93
2023-06-13T03:54:55.212Z,960.95
2023-06-13T03:55:55.203Z,960.92
2023-06-13T03:56:55.203Z,960.98
2023-06-13T03:57:55.185Z,960.94
2023-06-13T03:58:55.178Z,960.96
2023-06-13T03:59:55.165Z,960.96
2023-06-13T04:00:55.164Z,961.01
2023-06-13T04:01:55.153Z,960.99
2023-06-13T04:02:55.211Z,960.98
2023-06-13T04:03:55.209Z,960.96
2023-06-13T04:04:55.105Z,960.98
2023-06-13T04:05:55.176Z,960.98
2023-06-13T04:06:55.079Z,961.03
2023-06-13T04:07:55.102Z,960.96
2023-06-13T04:08:55.066Z,960.98
2023-06-13T04:09:55.046Z,960.97
2023-06-13T04:10:55.054Z,960.98
2023-06-13T04:11:55.023Z,960.97
2023-06-13T04:12:55.019Z,961.00
2023-06-13T04:13:55.054Z,960.97
2023-06-13T04:14:55.014Z,961.00
2023-06-13T04:15:54.977Z,961.00
2023-06-13T04:16:55.135Z,961.03
2023-06-13T04:17:55.017Z,961.04
2023-06-13T04:18:54.944Z,961.07
2023-06-13T04:19:54.948Z,961.06
2023-06-13T04:20:54.930Z,961.09
2023-06-13T04:21:54.926Z,961.10
2023-06-13T04:22:54.901Z,961.10
2023-06-13T04:23:54.945Z,961.14
2023-06-13T04:24:54.892Z,961.12
2023-06-13T04:25:54.868Z,961.16
2023-06-13T04:26:54.894Z,961.13
2023-06-13T04:27:54.893Z,961.24
2023-06-13T04:28:54.879Z,961.16
2023-06-13T04:29:54.826Z,961.19
2023-06-13T04:30:54.820Z,961.19
2023-06-13T04:31:54.908Z,961.23
2023-06-13T04:32:54.813Z,961.25
2023-06-13T04:33:54.814Z,961.26
2023-06-13T04:34:54.776Z,961.23
2023-06-13T04:35:54.762Z,961.25
2023-06-13T04:36:54.745Z,961.26
2023-06-13T04:37:54.743Z,961.25
2023-06-13T04:38:54.730Z,961.22
2023-06-13T04:39:54.728Z,961.22
2023-06-13T04:40:54.699Z,961.23
2023-06-13T04:41:54.779Z,961.26
2023-06-13T04:42:54.682Z,961.24
2023-06-13T04:43:54.673Z,961.24
2023-06-13T04:44:54.645Z,961.27
2023-06-13T04:45:54.658Z,961.27
2023-06-13T04:46:54.628Z,961.27
2023-06-13T04:47:57.891Z,961.30
2023-06-13T04:48:54.603Z,961.30
2023-06-13T04:49:54.585Z,961.29
2023-06-13T04:50:54.588Z,961.29
2023-06-13T04:51:54.568Z,961.29
2023-06-13T04:52:54.900Z,961.32
2023-06-13T04:53:54.555Z,961.33
2023-06-13T04:54:54.558Z,961.34
2023-06-13T04:55:54.529Z,961.37
2023-06-13T04:56:54.517Z,961.35
2023-06-13T04:57:54.504Z,961.35
2023-06-13T04:58:54.500Z,961.35
2023-06-13T04:59:54.475Z,961.33
2023-06-13T05:00:54.503Z,961.37
2023-06-13T05:01:54.481Z,961.34
2023-06-13T05:02:54.469Z,961.32
2023-06-13T05:03:54.484Z,961.39
2023-06-13T05:04:54.433Z,961.37
2023-06-13T05:05:54.440Z,961.42
2023-06-13T05:06:54.402Z,961.39
2023-06-13T05:07:54.389Z,961.42
2023-06-13T05:08:54.389Z,961.46
2023-06-13T05:09:54.376Z,961.40
2023-06-13T05:10:54.370Z,961.42
2023-06-13T05:11:54.340Z,961.42
2023-06-13T05:12:54.335Z,961.40
2023-06-13T05:13:54.328Z,961.43
2023-06-13T05:14:54.325Z,961.37
2023-06-13T05:15:54.378Z,961.39
2023-06-13T05:16:54.296Z,961.40
2023-06-13T05:17:55.458Z,961.35
2023-06-13T05:18:54.265Z,961.33
2023-06-13T05:19:54.259Z,961.35
2023-06-13T05:20:54.252Z,961.37
2023-06-13T05:21:54.245Z,961.32
2023-06-13T05:22:54.232Z,961.33
2023-06-13T05:23:54.257Z,961.31
2023-06-13T05:24:54.202Z,961.36
2023-06-13T05:25:54.193Z,961.34
2023-06-13T05:26:54.230Z,961.29
2023-06-13T05:27:54.173Z,961.27
2023-06-13T05:28:54.159Z,961.28
2023-06-13T05:29:54.155Z,961.25
2023-06-13T05:30:54.156Z,961.27
2023-06-13T05:31:54.189Z,961.26
2023-06-13T05:32:54.271Z,961.21
2023-06-13T05:33:54.107Z,961.22
2023-06-13T05:34:54.098Z,961.22
2023-06-13T05:35:57.666Z,961.22
2023-06-13T05:36:54.066Z,961.20
2023-06-13T05:37:54.103Z,961.19
2023-06-13T05:38:54.037Z,961.26
2023-06-13T05:39:54.028Z,961.17
2023-06-13T05:40:54.078Z,961.17
2023-06-13T05:41:54.011Z,961.20
2023-06-13T05:42:54.004Z,961.20
2023-06-13T05:43:53.994Z,961.17
2023-06-13T05:44:54.012Z,961.16
2023-06-13T05:45:53.963Z,961.20
2023-06-13T05:46:53.956Z,961.17
2023-06-13T05:47:54.075Z,961.17
2023-06-13T05:48:53.948Z,961.22
2023-06-13T05:49:53.911Z,961.24
2023-06-13T05:50:53.918Z,961.22
2023-06-13T05:51:53.908Z,961.28
2023-06-13T05:52:53.911Z,961.21
2023-06-13T05:53:53.877Z,961.27
2023-06-13T05:54:53.858Z,961.22
2023-06-13T05:55:53.862Z,961.20
2023-06-13T05:56:53.843Z,961.22
2023-06-13T05:57:53.844Z,961.23
2023-06-13T05:58:53.839Z,961.22
2023-06-13T05:59:53.807Z,961.20
2023-06-13T06:00:53.813Z,961.19
2023-06-13T06:01:53.807Z,961.20
2023-06-13T06:02:53.830Z,961.15
2023-06-13T06:03:53.875Z,961.19
2023-06-13T06:04:53.768Z,961.20
2023-06-13T06:05:53.745Z,961.21
2023-06-13T06:06:53.726Z,961.12
2023-06-13T06:07:53.714Z,961.14
2023-06-13T06:08:53.803Z,961.12
2023-06-13T06:09:53.694Z,961.11
2023-06-13T06:10:53.691Z,961.12
2023-06-13T06:11:53.666Z,961.12
2023-06-13T06:12:53.697Z,961.15
2023-06-13T06:13:53.640Z,961.07
2023-06-13T06:14:53.633Z,961.05
2023-06-13T06:15:53.623Z,961.05
2023-06-13T06:16:53.615Z,961.04
2023-06-13T06:17:53.664Z,961.01
2023-06-13T06:18:53.776Z,960.98
2023-06-13T06:19:53.580Z,960.97
2023-06-13T06:20:53.570Z,960.97
2023-06-13T06:21:53.611Z,960.94
2023-06-13T06:22:53.542Z,960.93
2023-06-13T06:23:53.574Z,960.94
2023-06-13T06:24:53.524Z,960.91
2023-06-13T06:25:53.524Z,960.88
2023-06-13T06:26:53.509Z,960.90
2023-06-13T06:27:53.476Z,960.90
2023-06-13T06:28:53.478Z,960.92
2023-06-13T06:29:53.453Z,960.89
2023-06-13T06:30:53.501Z,960.92
2023-06-13T06:31:53.432Z,960.92
2023-06-13T06:32:53.491Z,960.94
2023-06-13T06:33:53.420Z,960.96
2023-06-13T06:34:53.406Z,960.95
2023-06-13T06:35:53.426Z,960.97
2023-06-13T06:36:53.376Z,960.90
2023-06-13T06:37:53.379Z,960.91
2023-06-13T06:38:53.374Z,960.92
2023-06-13T06:39:53.344Z,960.91
2023-06-13T06:40:53.341Z,960.87
2023-06-13T06:41:53.327Z,960.90
2023-06-13T06:42:53.329Z,960.88
2023-06-13T06:43:53.336Z,960.87
2023-06-13T06:44:53.288Z,960.88
2023-06-13T06:45:53.316Z,960.86
2023-06-13T06:46:53.329Z,960.81
2023-06-13T06:47:53.278Z,960.83
2023-06-13T06:48:53.247Z,960.83
2023-06-13T06:49:53.229Z,960.81
2023-06-13T06:50:53.217Z,960.82
2023-06-13T06:51:53.217Z,960.81
2023-06-13T06:52:53.205Z,960.77
2023-06-13T06:53:53.189Z,960.77
2023-06-13T06:54:53.227Z,960.82
2023-06-13T06:55:53.200Z,960.87
2023-06-13T06:56:53.152Z,960.81
2023-06-13T06:57:53.150Z,960.81
2023-06-13T06:58:53.155Z,960.82
2023-06-13T06:59:53.124Z,960.84
2023-06-13T07:00:53.169Z,960.81
2023-06-13T07:01:53.124Z,960.81
2023-06-13T07:02:53.136Z,960.77
2023-06-13T07:03:53.132Z,960.79
2023-06-13T07:04:53.072Z,960.72
2023-06-13T07:05:53.066Z,960.77
2023-06-13T07:06:53.084Z,960.75
2023-06-13T07:07:53.038Z,960.70
2023-06-13T07:08:53.037Z,960.68
2023-06-13T07:09:53.056Z,960.59
2023-06-13T07:10:53.008Z,960.66
2023-06-13T07:11:52.988Z,960.62
2023-06-13T07:12:53.005Z,960.67
2023-06-13T07:13:52.980Z,960.62
2023-06-13T07:14:52.963Z,960.62
2023-06-13T07:15:52.960Z,960.65
2023-06-13T07:16:52.978Z,960.60
2023-06-13T07:17:52.958Z,960.62
2023-06-13T07:18:52.912Z,960.65
2023-06-13T07:19:52.895Z,960.63
2023-06-13T07:20:52.890Z,960.62
2023-06-13T07:21:52.874Z,960.61
2023-06-13T07:22:52.874Z,960.57
2023-06-13T07:24:05.947Z,960.59
2023-06-13T07:24:52.989Z,960.60
2023-06-13T07:25:52.891Z,960.56
2023-06-13T07:26:52.824Z,960.57
2023-06-13T07:27:52.829Z,960.56
2023-06-13T07:28:52.801Z,960.56
2023-06-13T07:29:52.804Z,960.54
2023-06-13T07:30:52.786Z,960.52
2023-06-13T07:31:52.797Z,960.53
2023-06-13T07:32:52.793Z,960.49
2023-06-13T07:33:52.768Z,960.50
2023-06-13T07:35:04.948Z,960.57
2023-06-13T07:35:52.726Z,960.50
2023-06-13T07:36:52.748Z,960.55
2023-06-13T07:37:52.693Z,960.56
2023-06-13T07:38:52.688Z,960.53
2023-06-13T07:39:52.696Z,960.53
2023-06-13T07:40:52.679Z,960.51
2023-06-13T07:41:52.655Z,960.53
2023-06-13T07:42:52.658Z,960.52
2023-06-13T07:43:52.629Z,960.54
2023-06-13T07:44:52.697Z,960.54
2023-06-13T07:45:52.668Z,960.49
2023-06-13T07:46:52.620Z,960.48
2023-06-13T07:47:52.645Z,960.43
2023-06-13T07:48:52.621Z,960.48
2023-06-13T07:49:52.577Z,960.55
2023-06-13T07:50:52.861Z,960.55
2023-06-13T07:51:52.585Z,960.56
2023-06-13T07:52:52.532Z,960.50
2023-06-13T07:53:52.553Z,960.46
2023-06-13T07:54:52.508Z,960.44
2023-06-13T07:55:52.520Z,960.34
2023-06-13T07:56:52.514Z,960.35
2023-06-13T07:57:59.700Z,960.33
2023-06-13T07:58:52.477Z,960.35
2023-06-13T07:59:52.476Z,960.32
2023-06-13T08:00:52.474Z,960.28
2023-06-13T08:01:52.441Z,960.40
2023-06-13T08:02:52.589Z,960.30
2023-06-13T08:03:52.552Z,960.30
2023-06-13T08:04:55.068Z,960.26
2023-06-13T08:05:52.400Z,960.32
2023-06-13T08:06:52.391Z,960.28
2023-06-13T08:07:52.394Z,960.32
2023-06-13T08:08:52.368Z,960.31
2023-06-13T08:09:52.543Z,960.31
2023-06-13T08:10:52.342Z,960.32
2023-06-13T08:11:52.331Z,960.30
2023-06-13T08:12:52.318Z,960.33
2023-06-13T08:13:52.357Z,960.29
2023-06-13T08:14:52.326Z,960.28
2023-06-13T08:15:52.311Z,960.29
2023-06-13T08:16:52.308Z,960.28
2023-06-13T08:17:52.343Z,960.33
2023-06-13T08:18:52.257Z,960.21
2023-06-13T08:19:52.256Z,960.19
2023-06-13T08:20:52.236Z,960.20
2023-06-13T08:21:52.231Z,960.15
2023-06-13T08:22:52.223Z,960.15
2023-06-13T08:23:52.234Z,960.07
2023-06-13T08:24:52.218Z,960.11
2023-06-13T08:25:52.336Z,960.08
2023-06-13T08:26:53.639Z,960.18
2023-06-13T08:27:52.230Z,960.16
2023-06-13T08:28:52.185Z,960.15
2023-06-13T08:29:52.177Z,960.08
2023-06-13T08:30:52.142Z,960.17
2023-06-13T08:31:52.206Z,960.20
2023-06-13T08:32:52.182Z,960.14
2023-06-13T08:34:03.572Z,960.10
2023-06-13T08:34:52.099Z,960.09
2023-06-13T08:35:52.157Z,960.10
2023-06-13T08:36:52.185Z,960.12
2023-06-13T08:37:52.077Z,960.09
2023-06-13T08:38:52.820Z,960.05
2023-06-13T08:39:52.056Z,960.03
2023-06-13T08:40:52.039Z,960.05
2023-06-13T08:41:52.025Z,960.13
2023-06-13T08:42:52.032Z,960.09
2023-06-13T08:43:52.000Z,960.08
2023-06-13T08:44:51.983Z,960.05
2023-06-13T08:45:52.016Z,960.03
2023-06-13T08:46:53.516Z,960.08
2023-06-13T08:47:52.125Z,960.00
2023-06-13T08:48:52.010Z,959.95
2023-06-13T08:49:51.954Z,960.04
2023-06-13T08:50:51.967Z,960.02
2023-06-13T08:51:51.957Z,959.96
2023-06-13T08:52:51.920Z,959.99
2023-06-13T08:53:51.913Z,959.94
2023-06-13T08:55:04.606Z,959.92
2023-06-13T08:56:51.909Z,960.00
2023-06-13T08:57:51.882Z,959.99
2023-06-13T08:58:51.853Z,959.99
2023-06-13T08:59:51.844Z,960.04
2023-06-13T09:00:51.894Z,960.03
2023-06-13T09:01:51.823Z,959.93
2023-06-13T09:02:52.019Z,959.98
2023-06-13T09:03:51.827Z,959.94
2023-06-13T09:04:54.884Z,959.92
2023-06-13T09:05:51.775Z,959.94
2023-06-13T09:06:51.764Z,960.02
2023-06-13T09:07:51.770Z,960.01
2023-06-13T09:08:51.748Z,960.01
2023-06-13T09:09:51.746Z,959.99
2023-06-13T09:10:51.742Z,959.91
2023-06-13T09:11:52.154Z,959.90
2023-06-13T09:12:51.704Z,959.94
2023-06-13T09:13:51.698Z,959.98
2023-06-13T09:14:51.697Z,960.01
2023-06-13T09:15:51.679Z,959.89
2023-06-13T09:16:51.745Z,959.86
2023-06-13T09:17:51.758Z,959.91
2023-06-13T09:18:51.659Z,959.88
2023-06-13T09:19:51.638Z,959.89
2023-06-13T09:20:51.624Z,959.85
2023-06-13T09:21:51.695Z,959.90
2023-06-13T09:22:51.608Z,959.98
2023-06-13T09:23:51.597Z,959.94
2023-06-13T09:24:51.586Z,959.87
2023-06-13T09:25:51.599Z,959.83
2023-06-13T09:26:51.594Z,959.85
2023-06-13T09:27:51.601Z,959.84
2023-06-13T09:28:51.549Z,959.83
2023-06-13T09:29:51.530Z,959.81
2023-06-13T09:30:51.545Z,959.89
2023-06-13T09:31:51.518Z,959.85
2023-06-13T09:32:51.528Z,959.90
2023-06-13T09:33:51.485Z,959.98
2023-06-13T09:34:51.471Z,959.97
2023-06-13T09:35:51.517Z,959.96
2023-06-13T09:36:51.554Z,959.94
2023-06-13T09:37:51.452Z,959.88
2023-06-13T09:38:51.480Z,959.89
2023-06-13T09:39:58.717Z,959.95
2023-06-13T09:40:51.411Z,959.92
2023-06-13T09:41:51.404Z,959.92
2023-06-13T09:43:03.803Z,959.87
2023-06-13T09:43:51.389Z,959.87
2023-06-13T09:56:05.391Z,959.82
2023-06-13T09:56:10.869Z,959.94
2023-06-13T09:57:10.859Z,959.97
2023-06-13T09:58:27.095Z,959.88
2023-06-13T09:59:10.852Z,959.83
2023-06-13T10:00:10.812Z,959.82
2023-06-13T10:01:10.848Z,959.88
2023-06-13T10:02:11.113Z,959.82
2023-06-13T10:03:17.084Z,959.81
2023-06-13T10:04:10.775Z,959.88
2023-06-13T10:05:10.815Z,959.87
2023-06-13T10:06:10.744Z,959.87
2023-06-13T10:07:10.744Z,959.91
2023-06-13T10:08:10.725Z,959.89
2023-06-13T10:09:10.739Z,959.88
2023-06-13T10:10:10.717Z,959.95
2023-06-13T10:11:10.714Z,959.90
2023-06-13T10:12:10.687Z,959.84
2023-06-13T10:13:10.681Z,959.83
2023-06-13T10:14:10.698Z,959.79
2023-06-13T10:15:10.652Z,959.78
2023-06-13T10:16:10.649Z,959.77
2023-06-13T10:17:10.820Z,959.80
2023-06-13T10:18:10.675Z,959.79
2023-06-13T10:19:10.601Z,959.76
2023-06-13T10:20:10.603Z,959.79
2023-06-13T10:21:10.586Z,959.81
2023-06-13T10:22:10.578Z,959.80
2023-06-13T10:23:10.564Z,959.74
2023-06-13T10:24:10.573Z,959.83
2023-06-13T10:25:10.533Z,959.83
2023-06-13T10:26:10.669Z,959.75
2023-06-13T10:27:10.540Z,959.73
2023-06-13T10:28:10.504Z,959.83
2023-06-13T10:29:10.496Z,959.84
2023-06-13T10:30:10.472Z,959.88
2023-06-13T10:31:10.481Z,959.85
2023-06-13T10:32:10.554Z,959.85
2023-06-13T10:33:10.530Z,959.81
2023-06-13T10:34:10.442Z,959.81
2023-06-13T10:35:10.430Z,959.83
2023-06-13T10:36:10.465Z,959.96
2023-06-13T10:37:11.598Z,959.86
2023-06-13T10:38:10.392Z,959.88
2023-06-13T10:39:10.398Z,959.85
2023-06-13T10:40:10.366Z,959.80
2023-06-13T10:41:10.382Z,959.82
2023-06-13T10:42:10.342Z,959.81
2023-06-13T10:43:10.337Z,959.78
2023-06-13T10:44:10.322Z,959.81
2023-06-13T10:45:10.332Z,959.81
2023-06-13T10:46:10.346Z,959.75
2023-06-13T10:47:10.294Z,959.76
2023-06-13T10:48:10.335Z,959.71
2023-06-13T10:49:10.284Z,959.78
2023-06-13T10:50:10.251Z,959.85
2023-06-13T10:51:10.240Z,959.84
2023-06-13T10:52:10.229Z,959.80
2023-06-13T10:53:10.236Z,959.87
2023-06-13T10:54:10.224Z,959.82
2023-06-13T10:55:10.310Z,959.84
2023-06-13T10:56:10.187Z,959.66
2023-06-13T10:57:10.198Z,959.78
2023-06-13T10:58:10.158Z,959.90
2023-06-13T10:59:10.156Z,959.83
2023-06-13T11:00:10.144Z,959.71
2023-06-13T11:01:10.179Z,959.67
2023-06-13T11:02:10.118Z,959.69
2023-06-13T11:03:10.258Z,959.69
2023-06-13T11:04:10.428Z,959.67
2023-06-13T11:05:10.090Z,959.64
2023-06-13T11:06:10.072Z,959.67
2023-06-13T11:07:10.135Z,959.67
2023-06-13T11:08:10.042Z,959.63
2023-06-13T11:09:10.140Z,959.65
2023-06-13T11:10:10.039Z,959.69
2023-06-13T11:11:10.089Z,959.71
2023-06-13T11:12:09.998Z,959.80
2023-06-13T11:13:10.014Z,959.70
2023-06-13T11:14:09.988Z,959.75
2023-06-13T11:15:09.980Z,959.69
2023-06-13T11:16:09.963Z,959.62
2023-06-13T11:17:09.991Z,959.69
2023-06-13T11:18:10.021Z,959.63
2023-06-13T11:19:09.954Z,959.65
2023-06-13T11:20:09.912Z,959.62
2023-06-13T11:21:09.903Z,959.65
2023-06-13T11:22:09.883Z,959.71
2023-06-13T11:23:09.876Z,959.62
2023-06-13T11:24:09.924Z,959.67
2023-06-13T11:25:09.870Z,959.62
2023-06-13T11:26:09.855Z,959.67
2023-06-13T11:27:09.998Z,959.70
2023-06-13T11:28:09.813Z,959.67
2023-06-13T11:29:09.820Z,959.71
2023-06-13T11:30:09.791Z,959.70
2023-06-13T11:31:09.833Z,959.73
2023-06-13T11:32:09.838Z,959.67
2023-06-13T11:33:09.809Z,959.61
2023-06-13T11:34:09.746Z,959.63
2023-06-13T11:35:09.766Z,959.57
2023-06-13T11:36:09.747Z,959.56
2023-06-13T11:37:09.714Z,959.53
2023-06-13T11:38:09.702Z,959.45
2023-06-13T11:39:09.696Z,959.40
2023-06-13T11:40:18.911Z,959.72
2023-06-13T11:41:09.684Z,959.61
2023-06-13T11:42:09.655Z,959.60
2023-06-13T11:43:09.697Z,959.59
2023-06-13T11:44:09.629Z,959.43
2023-06-13T11:45:09.620Z,959.54
2023-06-13T11:46:09.603Z,959.62
2023-06-13T11:47:09.851Z,959.54
2023-06-13T11:48:09.657Z,959.46
2023-06-13T11:49:09.652Z,959.60
2023-06-13T11:50:09.560Z,959.51
2023-06-13T11:51:09.550Z,959.48
2023-06-13T11:52:09.528Z,959.44
2023-06-13T11:53:09.542Z,959.40
2023-06-13T11:54:09.520Z,959.33
2023-06-13T11:55:09.494Z,959.32
2023-06-13T11:56:09.476Z,959.47
2023-06-13T11:57:09.469Z,959.58
2023-06-13T11:58:09.452Z,959.43
2023-06-13T11:59:09.482Z,959.41
2023-06-13T12:00:09.430Z,959.35
2023-06-13T12:01:09.462Z,959.43
2023-06-13T12:02:09.522Z,959.45
2023-06-13T12:03:09.470Z,959.45
2023-06-13T12:04:09.545Z,959.54
2023-06-13T12:05:09.487Z,959.42
2023-06-13T12:06:09.363Z,959.32
2023-06-13T12:07:09.343Z,959.39
2023-06-13T12:08:09.341Z,959.41
2023-06-13T12:09:09.328Z,959.40
2023-06-13T12:10:09.312Z,959.41
2023-06-13T12:11:19.985Z,959.37
2023-06-13T12:12:09.294Z,959.39
2023-06-13T12:13:09.280Z,959.35
2023-06-13T12:14:09.261Z,959.38
2023-06-13T12:15:09.362Z,959.36
2023-06-13T12:16:09.233Z,959.30
2023-06-13T12:17:09.250Z,959.30
2023-06-13T12:18:09.277Z,959.32
2023-06-13T12:19:09.191Z,959.25
2023-06-13T12:20:09.221Z,959.22
2023-06-13T12:21:09.172Z,959.20
2023-06-13T12:22:09.163Z,959.24
2023-06-13T12:23:09.147Z,959.22
2023-06-13T12:24:09.440Z,959.26
2023-06-13T12:25:09.135Z,959.31
2023-06-13T12:26:09.113Z,959.37
2023-06-13T12:27:09.110Z,959.38
2023-06-13T12:28:09.156Z,959.30
2023-06-13T12:29:09.136Z,959.19
2023-06-13T12:30:09.068Z,959.21
2023-06-13T12:31:09.167Z,959.25
2023-06-13T12:32:09.088Z,959.22
2023-06-13T12:33:09.181Z,959.24
2023-06-13T12:34:09.072Z,959.21
2023-06-13T12:35:09.008Z,959.26
2023-06-13T12:36:08.999Z,959.31
2023-06-13T12:37:09.015Z,959.27
2023-06-13T12:38:09.081Z,959.25
2023-06-13T12:39:08.957Z,959.19
2023-06-13T12:40:08.963Z,959.12